Clarksville, Florida
Current Conditions -  °F | °C
As of 9:53 AM on Monday 24 Nov 2014 (Local Time) from KMAI Reporting Station
Overcast Overcast  
Wind Chill: 72°   Ceiling: 9500
Heat Index: 72°   Visibility: 10mi
Dew Point: 71°   Wind: 6mph
Humidity: 97%   Direction: 220°SW
Pressure: 29.88"   Gusts: NA
Location:  30.47°N, 85.05°W
Report Text: KMAI 241553Z AUTO 22005KT 10SM OVC095 22/22 A2988 RMK AO2 SLP115 T02220217
Loading
Personal Weather Stations






























Interactive Weather Map New forecast layout! Learn more

10-Day Weather Forecast

Advertisements
Track Severe Weather on mobile